createdAt,value
2018-07-21T00:00:34.488Z,59.29
2018-07-21T00:03:02.886Z,60.06
2018-07-21T00:05:31.332Z,59.72
2018-07-21T00:07:59.769Z,60.15
2018-07-21T00:10:28.203Z,61.16
2018-07-21T00:12:56.660Z,61.14
2018-07-21T00:15:25.144Z,62.18
2018-07-21T00:17:53.556Z,62.52
2018-07-21T00:20:21.982Z,62.98
2018-07-21T00:22:50.375Z,63.35
2018-07-21T00:25:18.744Z,63.18
2018-07-21T00:27:47.217Z,63.00
2018-07-21T00:30:15.627Z,62.26
2018-07-21T00:32:44.140Z,62.66
2018-07-21T00:35:12.592Z,62.75
2018-07-21T00:37:41.081Z,64.02
2018-07-21T00:40:09.685Z,63.47
2018-07-21T00:42:38.118Z,63.38
2018-07-21T00:45:06.563Z,63.82
2018-07-21T00:47:34.973Z,63.78
2018-07-21T00:50:03.428Z,64.06
2018-07-21T00:52:32.496Z,64.59
2018-07-21T00:55:00.925Z,64.19
2018-07-21T00:57:29.336Z,63.71
2018-07-21T00:59:57.730Z,63.94
2018-07-21T01:02:26.741Z,64.22
2018-07-21T01:04:55.149Z,63.79
2018-07-21T01:07:23.536Z,64.18
2018-07-21T01:09:51.982Z,64.67
2018-07-21T01:12:20.468Z,64.32
2018-07-21T01:14:48.925Z,65.07
2018-07-21T01:17:17.338Z,65.08
2018-07-21T01:19:45.801Z,64.23
2018-07-21T01:22:14.175Z,64.57
2018-07-21T01:24:42.868Z,64.27
2018-07-21T01:27:11.240Z,65.42
2018-07-21T01:29:39.636Z,64.63
2018-07-21T01:32:08.042Z,65.33
2018-07-21T01:34:36.452Z,65.29
2018-07-21T01:37:04.892Z,65.36
2018-07-21T01:39:33.384Z,65.66
2018-07-21T01:42:01.754Z,65.08
2018-07-21T01:44:30.144Z,64.68
2018-07-21T01:46:58.592Z,64.66
2018-07-21T01:49:27.008Z,65.06
2018-07-21T01:51:55.450Z,64.99
2018-07-21T01:54:23.861Z,65.34
2018-07-21T01:56:52.241Z,64.78
2018-07-21T01:59:20.660Z,65.74
2018-07-21T02:01:49.092Z,65.76
2018-07-21T02:04:17.479Z,65.63
2018-07-21T02:06:45.901Z,65.80
2018-07-21T02:09:14.304Z,65.76
2018-07-21T02:11:42.692Z,66.26
2018-07-21T02:14:11.101Z,66.67
2018-07-21T02:16:39.508Z,66.56
2018-07-21T02:19:08.014Z,66.61
2018-07-21T02:21:36.457Z,67.20
2018-07-21T02:24:04.908Z,67.45
2018-07-21T02:26:33.318Z,67.00
2018-07-21T02:29:01.712Z,68.33
2018-07-21T02:31:30.186Z,67.28
2018-07-21T02:33:58.719Z,67.91
2018-07-21T02:36:27.664Z,67.33
2018-07-21T02:38:56.121Z,68.08
2018-07-21T02:41:24.578Z,68.58
2018-07-21T02:43:52.969Z,68.87
2018-07-21T02:46:21.329Z,69.01
2018-07-21T02:48:49.795Z,69.53
2018-07-21T02:51:18.211Z,69.12
2018-07-21T02:53:46.577Z,69.04
2018-07-21T02:56:14.994Z,69.23
2018-07-21T02:58:43.411Z,69.89
2018-07-21T03:01:11.781Z,69.47
2018-07-21T03:03:40.185Z,69.93
2018-07-21T03:06:08.597Z,69.69
2018-07-21T03:08:36.995Z,70.71
2018-07-21T03:11:05.400Z,70.75
2018-07-21T03:13:33.849Z,72.20
2018-07-21T03:16:02.280Z,72.10
2018-07-21T03:18:30.648Z,71.38
2018-07-21T03:20:59.073Z,71.77
2018-07-21T03:23:27.498Z,72.20
2018-07-21T03:25:55.972Z,70.86
2018-07-21T03:28:24.381Z,70.54
2018-07-21T03:30:52.861Z,70.38
2018-07-21T03:33:21.233Z,70.34
2018-07-21T03:35:49.643Z,70.55
2018-07-21T03:38:18.067Z,71.53
2018-07-21T03:40:46.491Z,71.92
2018-07-21T03:43:14.919Z,71.73
2018-07-21T03:45:43.372Z,71.55
2018-07-21T03:48:11.731Z,72.00
2018-07-21T03:50:40.127Z,72.20
2018-07-21T03:53:08.527Z,71.15
2018-07-21T03:55:36.970Z,71.62
2018-07-21T03:58:05.424Z,72.74
2018-07-21T04:00:33.953Z,73.04
2018-07-21T04:03:02.553Z,73.36
2018-07-21T04:05:30.940Z,73.07
2018-07-21T04:07:59.290Z,72.75
2018-07-21T04:10:27.778Z,72.34
2018-07-21T04:12:56.305Z,72.76
2018-07-21T04:15:24.806Z,73.86
2018-07-21T04:17:53.239Z,75.06
2018-07-21T04:20:21.660Z,74.50
2018-07-21T04:22:50.052Z,74.28
2018-07-21T04:25:18.506Z,73.67
2018-07-21T04:27:47.473Z,73.15
2018-07-21T04:30:15.940Z,73.35
2018-07-21T04:32:44.422Z,73.29
2018-07-21T04:35:12.843Z,73.44
2018-07-21T04:37:41.311Z,72.37
2018-07-21T04:40:09.787Z,73.57
2018-07-21T04:42:38.211Z,74.38
2018-07-21T04:45:06.664Z,74.25
2018-07-21T04:47:35.059Z,74.53
2018-07-21T04:50:04.226Z,74.83
2018-07-21T04:52:33.324Z,74.37
2018-07-21T04:55:01.782Z,73.89
2018-07-21T04:57:30.307Z,73.82
2018-07-21T04:59:58.740Z,73.73
2018-07-21T05:02:27.139Z,73.74
2018-07-21T05:04:55.599Z,74.36
2018-07-21T05:07:24.020Z,74.14
2018-07-21T05:09:52.435Z,73.62
2018-07-21T05:12:20.880Z,73.10
2018-07-21T05:14:49.272Z,73.25
2018-07-21T05:17:17.779Z,73.16
2018-07-21T05:19:46.157Z,72.21
2018-07-21T05:22:14.527Z,72.61
2018-07-21T05:24:43.229Z,72.27
2018-07-21T05:27:11.688Z,72.30
2018-07-21T05:29:40.461Z,72.90
2018-07-21T05:32:08.917Z,72.31
2018-07-21T05:34:37.334Z,72.77
2018-07-21T05:37:05.727Z,72.49
2018-07-21T05:39:34.157Z,72.68
2018-07-21T05:42:02.593Z,71.98
2018-07-21T05:44:31.023Z,72.99
2018-07-21T05:46:59.449Z,73.40
2018-07-21T05:49:27.912Z,71.63
2018-07-21T05:51:56.389Z,71.61
2018-07-21T05:54:25.007Z,71.34
2018-07-21T05:56:53.422Z,71.92
2018-07-21T05:59:22.277Z,70.87
2018-07-21T06:01:50.852Z,70.52
2018-07-21T06:04:19.249Z,69.99
2018-07-21T06:06:47.724Z,70.67
2018-07-21T06:09:16.084Z,70.28
2018-07-21T06:11:45.505Z,69.89
2018-07-21T06:14:13.976Z,69.61
2018-07-21T06:16:42.490Z,69.59
2018-07-21T06:19:10.908Z,68.18
2018-07-21T06:21:39.332Z,68.03
2018-07-21T06:24:07.763Z,69.45
2018-07-21T06:26:36.581Z,68.09
2018-07-21T06:29:05.008Z,68.42
2018-07-21T06:31:33.527Z,67.42
2018-07-21T06:34:01.954Z,68.45
2018-07-21T06:36:30.513Z,68.84
2018-07-21T06:38:58.993Z,68.76
2018-07-21T06:41:27.448Z,67.52
2018-07-21T06:43:55.937Z,68.27
2018-07-21T06:46:24.390Z,68.26
2018-07-21T06:48:52.835Z,68.34
2018-07-21T06:51:21.394Z,68.33
2018-07-21T06:53:49.834Z,67.84
2018-07-21T06:56:18.258Z,68.31
2018-07-21T06:58:46.649Z,66.76
2018-07-21T07:01:15.039Z,67.33
2018-07-21T07:03:43.845Z,67.54
2018-07-21T07:06:12.314Z,67.34
2018-07-21T07:08:40.732Z,67.62
2018-07-21T07:11:09.164Z,66.14
2018-07-21T07:13:37.616Z,67.24
2018-07-21T07:16:06.283Z,66.19
2018-07-21T07:18:34.761Z,66.56
2018-07-21T07:21:03.292Z,65.62
2018-07-21T07:23:31.705Z,65.94
2018-07-21T07:26:00.148Z,65.32
2018-07-21T07:28:28.562Z,66.35
2018-07-21T07:30:57.023Z,64.39
2018-07-21T07:33:25.444Z,64.76
2018-07-21T07:35:54.542Z,65.85
2018-07-21T07:38:22.948Z,66.74
2018-07-21T07:40:51.690Z,66.37
2018-07-21T07:43:20.114Z,66.85
2018-07-21T07:45:48.601Z,67.00
2018-07-21T07:48:17.012Z,66.90
2018-07-21T07:50:45.484Z,66.19
2018-07-21T07:53:14.706Z,67.01
2018-07-21T07:55:43.131Z,67.00
2018-07-21T07:58:11.524Z,66.39
2018-07-21T08:00:39.953Z,65.64
2018-07-21T08:03:08.406Z,65.73
2018-07-21T08:05:36.775Z,65.21
2018-07-21T08:08:05.273Z,64.50
2018-07-21T08:10:33.729Z,64.71
2018-07-21T08:13:02.263Z,64.85
2018-07-21T08:15:30.669Z,64.38
2018-07-21T08:17:59.216Z,64.03
2018-07-21T08:20:27.620Z,64.05
2018-07-21T08:22:56.108Z,64.01
2018-07-21T08:25:24.510Z,63.20
2018-07-21T08:27:54.030Z,63.73
2018-07-21T08:30:22.475Z,63.43
2018-07-21T08:32:50.903Z,62.34
2018-07-21T08:35:19.324Z,62.37
2018-07-21T08:37:47.716Z,62.70
2018-07-21T08:40:16.128Z,63.25
2018-07-21T08:42:44.591Z,62.79
2018-07-21T08:45:13.043Z,63.75
2018-07-21T08:47:41.480Z,64.22
2018-07-21T08:50:09.900Z,63.78
2018-07-21T08:52:38.366Z,63.25
2018-07-21T08:55:06.799Z,62.68
2018-07-21T08:57:35.280Z,61.20
2018-07-21T09:00:04.412Z,60.66
2018-07-21T09:02:32.816Z,61.63
2018-07-21T09:05:01.297Z,60.92
2018-07-21T09:07:29.728Z,61.12
2018-07-21T09:09:58.349Z,60.75
2018-07-21T09:12:26.798Z,60.67
2018-07-21T09:14:55.575Z,57.68
2018-07-21T09:17:24.016Z,58.02
2018-07-21T09:19:52.933Z,54.71
2018-07-21T09:22:21.310Z,53.79
2018-07-21T09:24:50.108Z,52.29
2018-07-21T09:27:18.588Z,51.71
2018-07-21T09:29:47.071Z,51.77
2018-07-21T09:32:15.539Z,51.07
2018-07-21T09:34:44.544Z,52.60
2018-07-21T09:37:13.342Z,52.67
2018-07-21T09:39:41.715Z,51.90
2018-07-21T09:42:10.132Z,52.32
2018-07-21T09:44:38.528Z,50.01
2018-07-21T09:47:07.002Z,49.58
2018-07-21T09:49:35.907Z,49.04
2018-07-21T09:52:04.805Z,49.41
2018-07-21T09:54:34.052Z,48.43
2018-07-21T09:57:02.515Z,49.79
2018-07-21T09:59:30.922Z,50.56
2018-07-21T10:01:59.404Z,50.31
2018-07-21T10:04:27.840Z,49.58
2018-07-21T10:06:56.231Z,49.37
2018-07-21T10:09:24.713Z,48.88
2018-07-21T10:11:53.130Z,50.09
2018-07-21T10:14:21.624Z,49.27
2018-07-21T10:16:50.102Z,50.23
2018-07-21T10:19:18.576Z,48.82
2018-07-21T10:21:47.106Z,48.62
2018-07-21T10:24:20.657Z,49.39
2018-07-21T10:26:54.382Z,49.32
2018-07-21T10:29:22.860Z,49.28
2018-07-21T10:31:51.292Z,50.48
2018-07-21T10:34:19.715Z,50.96
2018-07-21T10:36:48.163Z,48.94
2018-07-21T10:39:16.568Z,48.20
2018-07-21T10:41:45.059Z,48.15
2018-07-21T10:44:13.481Z,46.84
2018-07-21T10:46:42.019Z,46.79
2018-07-21T10:49:10.404Z,47.75
2018-07-21T10:51:38.895Z,47.83
2018-07-21T10:54:07.613Z,49.04
2018-07-21T10:56:36.095Z,49.13
2018-07-21T10:59:04.608Z,49.10
2018-07-21T11:01:33.024Z,48.70
2018-07-21T11:04:01.460Z,48.39
2018-07-21T11:06:29.932Z,47.23
2018-07-21T11:08:58.332Z,48.00
2018-07-21T11:11:26.741Z,47.98
2018-07-21T11:13:55.115Z,49.12
2018-07-21T11:16:23.582Z,48.93
2018-07-21T11:18:51.991Z,47.29
2018-07-21T11:21:20.372Z,47.45
2018-07-21T11:23:48.768Z,46.21
2018-07-21T11:26:17.220Z,45.42
2018-07-21T11:28:45.627Z,44.34
2018-07-21T11:31:14.062Z,45.94
2018-07-21T11:33:42.421Z,46.26
2018-07-21T11:36:11.032Z,46.76
2018-07-21T11:38:39.176Z,45.42
2018-07-21T11:41:07.612Z,46.59
2018-07-21T11:43:36.475Z,47.33
2018-07-21T11:46:04.986Z,47.54
2018-07-21T11:48:33.439Z,45.54
2018-07-21T11:51:02.791Z,46.92
2018-07-21T11:53:31.233Z,46.15
2018-07-21T11:55:59.664Z,45.74
2018-07-21T11:58:28.074Z,45.97
2018-07-21T12:00:56.495Z,45.02
2018-07-21T12:03:24.963Z,45.16
2018-07-21T12:05:53.397Z,43.52
2018-07-21T12:08:21.789Z,45.93
2018-07-21T12:10:50.212Z,45.30
2018-07-21T12:13:18.668Z,44.39
2018-07-21T12:15:47.129Z,44.05
2018-07-21T12:18:15.567Z,44.60
2018-07-21T12:20:44.045Z,44.44
2018-07-21T12:23:12.464Z,43.33
2018-07-21T12:25:40.904Z,42.46
2018-07-21T12:28:09.379Z,43.45
2018-07-21T12:30:37.884Z,43.07
2018-07-21T12:33:06.605Z,41.38
2018-07-21T12:35:35.037Z,41.51
2018-07-21T12:38:03.541Z,43.33
2018-07-21T12:40:32.014Z,43.47
2018-07-21T12:43:00.416Z,42.73
2018-07-21T12:45:28.839Z,43.21
2018-07-21T12:47:57.240Z,43.08
2018-07-21T12:50:25.643Z,42.48
2018-07-21T12:52:54.077Z,38.16
2018-07-21T12:55:22.544Z,38.38
2018-07-21T12:57:50.992Z,39.97
2018-07-21T13:00:19.438Z,40.09
2018-07-21T13:02:47.820Z,36.85
2018-07-21T13:05:16.392Z,35.77
2018-07-21T13:07:44.852Z,36.74
2018-07-21T13:10:13.309Z,36.19
2018-07-21T13:12:41.892Z,37.55
2018-07-21T13:15:10.340Z,38.36
2018-07-21T13:17:38.867Z,36.39
2018-07-21T13:20:07.472Z,38.36
2018-07-21T13:22:35.932Z,39.04
2018-07-21T13:25:04.512Z,36.16
2018-07-21T13:27:32.932Z,33.59
2018-07-21T13:30:01.337Z,36.53
2018-07-21T13:32:29.796Z,37.53
2018-07-21T13:34:58.540Z,34.80
2018-07-21T13:37:28.052Z,34.90
2018-07-21T13:39:56.397Z,36.75
2018-07-21T13:42:25.128Z,35.05
2018-07-21T13:44:53.592Z,35.01
2018-07-21T13:47:21.985Z,33.26
2018-07-21T13:49:50.404Z,33.91
2018-07-21T13:52:18.889Z,32.45
2018-07-21T13:54:48.320Z,34.59
2018-07-21T13:57:16.722Z,32.98
2018-07-21T13:59:45.111Z,35.19
2018-07-21T14:02:13.586Z,33.81
2018-07-21T14:04:41.998Z,33.53
2018-07-21T14:07:10.476Z,33.28
2018-07-21T14:09:38.928Z,34.64
2018-07-21T14:12:07.603Z,34.95
2018-07-21T14:14:36.180Z,34.02
2018-07-21T14:17:04.641Z,33.85
2018-07-21T14:19:33.126Z,33.36
2018-07-21T14:22:01.566Z,34.60
2018-07-21T14:24:30.010Z,34.37
2018-07-21T14:26:58.456Z,34.61
2018-07-21T14:29:26.892Z,34.56
2018-07-21T14:31:55.534Z,34.48
2018-07-21T14:34:23.935Z,33.74
2018-07-21T14:36:52.363Z,34.49
2018-07-21T14:39:20.729Z,35.71
2018-07-21T14:41:49.280Z,34.97
2018-07-21T14:44:17.672Z,35.33
2018-07-21T14:46:46.121Z,35.83
2018-07-21T14:49:14.513Z,35.30
2018-07-21T14:51:42.973Z,35.44
2018-07-21T14:54:11.469Z,36.28
2018-07-21T14:56:39.883Z,33.85
2018-07-21T14:59:08.391Z,35.18
2018-07-21T15:01:36.865Z,37.02
2018-07-21T15:04:05.300Z,38.41
2018-07-21T15:06:33.946Z,36.98
2018-07-21T15:09:02.356Z,36.92
2018-07-21T15:11:30.747Z,37.04
2018-07-21T15:13:59.228Z,35.60
2018-07-21T15:16:29.097Z,36.18
2018-07-21T15:18:57.600Z,36.35
2018-07-21T15:21:26.092Z,39.30
2018-07-21T15:23:54.533Z,39.62
2018-07-21T15:26:23.142Z,41.45
2018-07-21T15:28:51.610Z,43.10
2018-07-21T15:31:20.051Z,42.28
2018-07-21T15:33:48.488Z,42.76
2018-07-21T15:36:16.870Z,43.61
2018-07-21T15:38:45.380Z,43.45
2018-07-21T15:41:13.904Z,44.46
2018-07-21T15:43:42.294Z,44.27
2018-07-21T15:46:10.845Z,44.78
2018-07-21T15:48:39.298Z,45.40
2018-07-21T15:51:08.064Z,45.08
2018-07-21T15:53:36.491Z,44.54
2018-07-21T15:56:04.957Z,45.53
2018-07-21T15:58:33.433Z,43.48
2018-07-21T16:01:01.827Z,43.81
2018-07-21T16:03:30.382Z,44.08
2018-07-21T16:05:58.837Z,44.56
2018-07-21T16:08:27.244Z,44.00
2018-07-21T16:10:55.624Z,44.01
2018-07-21T16:13:24.033Z,43.72
2018-07-21T16:15:52.479Z,43.27
2018-07-21T16:18:20.948Z,43.58
2018-07-21T16:20:49.376Z,42.90
2018-07-21T16:23:17.803Z,43.24
2018-07-21T16:25:46.329Z,42.95
2018-07-21T16:28:14.886Z,43.66
2018-07-21T16:30:43.316Z,43.63
2018-07-21T16:33:11.740Z,44.03
2018-07-21T16:35:40.191Z,43.70
2018-07-21T16:38:08.590Z,42.81
2018-07-21T16:40:36.977Z,43.18
2018-07-21T16:43:05.375Z,42.78
2018-07-21T16:45:33.871Z,43.55
2018-07-21T16:48:02.294Z,44.01
2018-07-21T16:50:30.696Z,44.54
2018-07-21T16:53:00.894Z,44.73
2018-07-21T16:55:29.337Z,43.85
2018-07-21T16:57:57.743Z,44.27
2018-07-21T17:00:26.146Z,44.84
2018-07-21T17:02:54.574Z,42.31
2018-07-21T17:05:22.974Z,42.25
2018-07-21T17:07:51.451Z,42.75
2018-07-21T17:10:19.866Z,42.76
2018-07-21T17:12:48.319Z,41.23
2018-07-21T17:15:17.499Z,40.88
2018-07-21T17:17:45.858Z,41.39
2018-07-21T17:20:14.364Z,42.36
2018-07-21T17:22:42.793Z,42.87
2018-07-21T17:25:11.188Z,44.71
2018-07-21T17:27:39.616Z,43.49
2018-07-21T17:30:08.099Z,42.76
2018-07-21T17:32:36.522Z,44.74
2018-07-21T17:35:04.981Z,44.51
2018-07-21T17:37:33.427Z,44.59
2018-07-21T17:40:01.897Z,43.59
2018-07-21T17:42:30.322Z,45.35
2018-07-21T17:44:58.748Z,45.07
2018-07-21T17:47:27.147Z,44.09
2018-07-21T17:49:55.603Z,46.02
2018-07-21T17:52:24.107Z,46.66
2018-07-21T17:54:52.572Z,44.79
2018-07-21T17:57:20.957Z,44.93
2018-07-21T17:59:49.368Z,46.44
2018-07-21T18:02:17.871Z,44.68
2018-07-21T18:04:46.266Z,45.15
2018-07-21T18:07:14.693Z,45.36
2018-07-21T18:09:43.202Z,45.00
2018-07-21T18:12:11.692Z,44.92
2018-07-21T18:14:40.131Z,45.92
2018-07-21T18:17:08.632Z,45.72
2018-07-21T18:19:37.241Z,45.77
2018-07-21T18:22:06.038Z,47.21
2018-07-21T18:24:34.992Z,47.48
2018-07-21T18:27:03.503Z,49.21
2018-07-21T18:29:31.912Z,50.32
2018-07-21T18:32:00.351Z,50.31
2018-07-21T18:34:28.780Z,51.99
2018-07-21T18:36:57.204Z,51.50
2018-07-21T18:39:25.620Z,52.55
2018-07-21T18:41:54.621Z,54.16
2018-07-21T18:44:23.188Z,55.40
2018-07-21T18:46:51.613Z,58.17
2018-07-21T18:49:20.463Z,60.71
2018-07-21T18:51:48.885Z,62.97
2018-07-21T18:54:18.115Z,63.34
2018-07-21T18:56:46.616Z,63.71
2018-07-21T18:59:15.613Z,67.91
2018-07-21T19:01:44.055Z,68.52
2018-07-21T19:04:12.479Z,72.10
2018-07-21T19:06:40.906Z,69.37
2018-07-21T19:09:10.024Z,72.12
2018-07-21T19:11:38.803Z,72.78
2018-07-21T19:14:07.310Z,73.52
2018-07-21T19:16:44.046Z,73.04
2018-07-21T19:19:12.505Z,74.34
2018-07-21T19:21:42.081Z,73.55
2018-07-21T19:24:10.973Z,74.40
2018-07-21T19:26:45.580Z,75.10
2018-07-21T19:29:14.148Z,74.22
2018-07-21T19:31:48.062Z,74.57
2018-07-21T19:34:16.810Z,74.18
2018-07-21T19:36:45.553Z,74.34
2018-07-21T19:39:14.068Z,74.76
2018-07-21T19:41:47.972Z,74.71
2018-07-21T19:44:17.068Z,74.00
2018-07-21T19:46:45.463Z,75.43
2018-07-21T19:49:13.888Z,74.89
2018-07-21T19:51:42.315Z,75.58
2018-07-21T19:54:10.798Z,76.06
2018-07-21T19:56:39.271Z,75.74
2018-07-21T19:59:07.620Z,75.12
2018-07-21T20:01:35.976Z,76.34
2018-07-21T20:04:04.425Z,76.67
2018-07-21T20:06:32.783Z,76.90
2018-07-21T20:09:01.244Z,78.23
2018-07-21T20:11:29.722Z,78.06
2018-07-21T20:13:58.185Z,79.35
2018-07-21T20:16:26.591Z,79.08
2018-07-21T20:18:55.058Z,78.57
2018-07-21T20:21:23.509Z,78.53
2018-07-21T20:23:51.949Z,79.01
2018-07-21T20:26:20.533Z,78.86
2018-07-21T20:28:48.934Z,79.33
2018-07-21T20:31:17.373Z,79.60
2018-07-21T20:33:45.807Z,79.31
2018-07-21T20:36:14.264Z,79.22
2018-07-21T20:38:42.656Z,79.81
2018-07-21T20:41:11.089Z,80.17
2018-07-21T20:43:39.523Z,79.17
2018-07-21T20:46:07.912Z,80.65
2018-07-21T20:48:36.425Z,79.85
2018-07-21T20:51:04.910Z,80.26
2018-07-21T20:53:33.363Z,81.02
2018-07-21T20:56:01.842Z,81.09
2018-07-21T20:58:30.293Z,80.06
2018-07-21T21:00:58.695Z,80.20
2018-07-21T21:03:27.151Z,79.60
2018-07-21T21:05:55.593Z,80.72
2018-07-21T21:08:24.054Z,81.08
2018-07-21T21:10:52.545Z,81.06
2018-07-21T21:13:21.051Z,81.49
2018-07-21T21:15:49.558Z,81.80
2018-07-21T21:18:18.155Z,80.63
2018-07-21T21:20:46.593Z,81.18
2018-07-21T21:23:15.040Z,81.29
2018-07-21T21:25:43.505Z,81.62
2018-07-21T21:28:11.961Z,81.37
2018-07-21T21:30:40.436Z,81.11
2018-07-21T21:33:08.850Z,82.03
2018-07-21T21:35:37.274Z,81.78
2018-07-21T21:38:05.781Z,81.10
2018-07-21T21:40:34.240Z,81.89
2018-07-21T21:43:02.703Z,82.38
2018-07-21T21:45:31.152Z,81.51
2018-07-21T21:47:59.638Z,81.12
2018-07-21T21:50:28.599Z,81.68
2018-07-21T21:52:57.301Z,82.41
2018-07-21T21:55:25.831Z,82.16
2018-07-21T21:57:54.256Z,82.68
2018-07-21T22:00:22.802Z,82.00
2018-07-21T22:02:51.212Z,82.53
2018-07-21T22:05:19.633Z,82.35
2018-07-21T22:07:48.071Z,82.89
2018-07-21T22:10:17.444Z,82.79
2018-07-21T22:12:45.848Z,81.86
2018-07-21T22:15:18.280Z,81.67
2018-07-21T22:17:46.724Z,82.61
2018-07-21T22:20:15.115Z,82.13
2018-07-21T22:22:43.948Z,82.50
2018-07-21T22:25:13.245Z,81.70
2018-07-21T22:27:41.667Z,81.83
2018-07-21T22:30:11.165Z,81.71
2018-07-21T22:32:39.574Z,82.42
2018-07-21T22:35:08.047Z,82.00
2018-07-21T22:37:36.511Z,82.23
2018-07-21T22:40:04.972Z,82.16
2018-07-21T22:42:33.397Z,81.99
2018-07-21T22:45:01.861Z,82.24
2018-07-21T22:47:30.248Z,83.13
2018-07-21T22:49:58.615Z,82.52
2018-07-21T22:52:27.016Z,83.17
2018-07-21T22:54:55.452Z,83.44
2018-07-21T22:57:23.908Z,83.54
2018-07-21T22:59:52.299Z,84.23
2018-07-21T23:02:20.767Z,84.43
2018-07-21T23:04:49.204Z,84.60
2018-07-21T23:07:17.621Z,84.79
2018-07-21T23:09:46.127Z,84.16
2018-07-21T23:12:14.559Z,85.06
2018-07-21T23:14:43.012Z,84.86
2018-07-21T23:17:11.504Z,84.69
2018-07-21T23:19:39.916Z,84.69
2018-07-21T23:22:08.491Z,83.80
2018-07-21T23:24:37.413Z,84.36
2018-07-21T23:27:05.840Z,84.79
2018-07-21T23:29:34.260Z,83.77
2018-07-21T23:32:02.717Z,85.05
2018-07-21T23:34:31.142Z,84.24
2018-07-21T23:36:59.612Z,84.50
2018-07-21T23:39:28.041Z,84.86
2018-07-21T23:41:57.052Z,85.26
2018-07-21T23:44:25.521Z,84.51
2018-07-21T23:46:53.945Z,85.08
2018-07-21T23:49:22.321Z,85.81
2018-07-21T23:51:50.785Z,85.43
2018-07-21T23:54:19.185Z,85.00
2018-07-21T23:56:47.591Z,85.66
2018-07-21T23:59:16.020Z,85.43
